Historical Weather Data
Okotoks
Hwy 2A and Milligan Dr

Date
ET inches
Rain inches
Temperature °C
Humidity
Avg
Wind kmh
Avg
Solar Wm2
Avg
High
Avg
Low
04/01/2021 0.10 0.00 16.1 8.0 0.0 29 0.0 200
04/02/2021 0.09 0.00 13.2 4.0 -4.7 47 0.0 230
04/03/2021 0.10 0.00 15.6 5.9 -4.7 40 0.0 228
04/04/2021 0.04 0.00 8.1 1.7 -4.5 70 0.0 114
04/05/2021 0.10 0.00 13.6 2.6 -7.6 58 0.0 243
04/06/2021 0.11 0.00 16.2 5.9 -4.7 37 0.0 238
04/07/2021 0.11 0.00 17.1 6.0 -5.2 42 0.0 220
04/08/2021 0.04 0.00 4.8 0.5 -6.4 67 0.0 120
04/09/2021 0.07 0.00 12.4 1.1 -8.3 52 0.0 157
04/10/2021 0.05 0.00 6.2 -0.2 -8.5 52 0.0 121
04/11/2021 0.09 0.00 6.5 -0.8 -7.2 48 0.0 228
04/12/2021 0.07 0.00 4.8 -1.8 -8.3 69 0.0 198
04/13/2021 0.10 0.00 8.1 -1.0 -10.9 52 0.0 267
04/14/2021 0.11 0.00 13.6 2.3 -9.5 44 0.0 267
04/15/2021 0.12 0.00 14.3 4.7 -6.8 41 0.0 269
04/16/2021 0.13 0.00 19.1 7.5 -3.4 32 0.0 272
04/17/2021 0.14 0.00 21.1 9.7 -2.1 29 0.0 267
04/18/2021 0.03 0.00 6.1 -1.3 -7.9 83 0.0 104
04/19/2021 0.08 0.00 4.5 0.0 -5.3 63 0.0 234
04/20/2021 0.12 0.00 11.5 3.0 -6.3 53 0.0 282
04/21/2021 0.17 0.16 19.5 8.4 -6.2 37 6.8 282
04/22/2021 0.05 0.04 7.9 -1.4 -5.0 77 19.7 191
04/23/2021 0.06 0.00 2.9 -2.2 -5.6 67 8.7 153
04/24/2021 0.05 0.00 4.5 -0.4 -4.1 79 9.1 114
04/25/2021 0.05 0.13 4.6 0.6 -1.8 91 5.3 130
04/26/2021 0.16 0.00 13.4 4.8 -6.4 54 7.5 292
04/27/2021 0.18 0.00 16.1 7.0 -2.7 39 11.2 276
04/28/2021 0.18 0.00 19.3 8.3 -5.1 43 9.2 274
04/29/2021 0.15 0.00 20.6 11.1 0.4 49 7.1 207
04/30/2021 0.23 0.00 23.0 12.9 2.1 42 12.5 283